sensor_id;sensor_type;location;lat;lon;timestamp;temperature;humidity
5138;DHT22;53959;53.626;11.410;2022-10-15T00:00:38;13.20;99.90
5138;DHT22;53959;53.626;11.410;2022-10-15T00:03:04;13.10;99.90
5138;DHT22;53959;53.626;11.410;2022-10-15T00:05:30;13.20;99.90
5138;DHT22;53959;53.626;11.410;2022-10-15T00:07:55;13.20;99.90
5138;DHT22;53959;53.626;11.410;2022-10-15T00:10:21;13.20;99.90
5138;DHT22;53959;53.626;11.410;2022-10-15T00:12:47;13.20;99.90
5138;DHT22;53959;53.626;11.410;2022-10-15T00:15:13;13.10;99.90
5138;DHT22;53959;53.626;11.410;2022-10-15T00:17:39;13.10;99.90
5138;DHT22;53959;53.626;11.410;2022-10-15T00:20:06;13.10;99.90
5138;DHT22;53959;53.626;11.410;2022-10-15T00:22:33;13.10;99.90
5138;DHT22;53959;53.626;11.410;2022-10-15T00:24:58;13.10;99.90
5138;DHT22;53959;53.626;11.410;2022-10-15T00:27:24;13.10;99.90
5138;DHT22;53959;53.626;11.410;2022-10-15T00:29:49;13.10;99.90
5138;DHT22;53959;53.626;11.410;2022-10-15T00:32:15;13.00;99.90
5138;DHT22;53959;53.626;11.410;2022-10-15T00:34:41;13.00;99.90
5138;DHT22;53959;53.626;11.410;2022-10-15T00:37:07;13.10;99.90
5138;DHT22;53959;53.626;11.410;2022-10-15T00:39:33;13.10;99.90
5138;DHT22;53959;53.626;11.410;2022-10-15T00:41:59;13.10;99.90
5138;DHT22;53959;53.626;11.410;2022-10-15T00:47:13;13.10;99.90
5138;DHT22;53959;53.626;11.410;2022-10-15T00:49:53;13.10;99.90
5138;DHT22;53959;53.626;11.410;2022-10-15T00:55:14;13.10;99.90
5138;DHT22;53959;53.626;11.410;2022-10-15T00:57:41;13.10;99.90
5138;DHT22;53959;53.626;11.410;2022-10-15T01:00:10;13.10;99.90
5138;DHT22;53959;53.626;11.410;2022-10-15T01:02:36;13.10;99.90
5138;DHT22;53959;53.626;11.410;2022-10-15T01:05:03;13.10;99.90
5138;DHT22;53959;53.626;11.410;2022-10-15T01:07:29;13.10;99.90
5138;DHT22;53959;53.626;11.410;2022-10-15T01:09:54;13.10;99.90
5138;DHT22;53959;53.626;11.410;2022-10-15T01:12:51;13.10;99.90
5138;DHT22;53959;53.626;11.410;2022-10-15T01:15:33;13.10;99.90
5138;DHT22;53959;53.626;11.410;2022-10-15T01:18:16;13.10;99.90
5138;DHT22;53959;53.626;11.410;2022-10-15T01:21:08;13.20;99.90
5138;DHT22;53959;53.626;11.410;2022-10-15T01:29:49;13.20;99.90
5138;DHT22;53959;53.626;11.410;2022-10-15T01:32:27;13.10;99.90
5138;DHT22;53959;53.626;11.410;2022-10-15T01:38:07;13.10;99.90
5138;DHT22;53959;53.626;11.410;2022-10-15T01:43:38;13.20;99.90
5138;DHT22;53959;53.626;11.410;2022-10-15T01:46:10;13.10;99.90
5138;DHT22;53959;53.626;11.410;2022-10-15T01:48:39;13.20;99.90
5138;DHT22;53959;53.626;11.410;2022-10-15T01:51:06;13.20;99.90
5138;DHT22;53959;53.626;11.410;2022-10-15T01:53:35;13.20;99.90
5138;DHT22;53959;53.626;11.410;2022-10-15T01:56:05;13.20;99.90
5138;DHT22;53959;53.626;11.410;2022-10-15T01:58:33;13.20;99.90
5138;DHT22;53959;53.626;11.410;2022-10-15T02:01:01;13.20;99.90
5138;DHT22;53959;53.626;11.410;2022-10-15T02:03:26;13.20;99.90
5138;DHT22;53959;53.626;11.410;2022-10-15T02:06:05;13.10;99.90
5138;DHT22;53959;53.626;11.410;2022-10-15T02:08:55;13.20;99.90
5138;DHT22;53959;53.626;11.410;2022-10-15T02:11:22;13.20;99.90
5138;DHT22;53959;53.626;11.410;2022-10-15T02:13:59;13.20;99.90
5138;DHT22;53959;53.626;11.410;2022-10-15T02:22:02;13.20;99.90
5138;DHT22;53959;53.626;11.410;2022-10-15T02:24:49;13.20;99.90
5138;DHT22;53959;53.626;11.410;2022-10-15T02:27:17;13.20;99.90
5138;DHT22;53959;53.626;11.410;2022-10-15T02:29:45;13.10;99.90
5138;DHT22;53959;53.626;11.410;2022-10-15T02:32:14;13.20;99.90
5138;DHT22;53959;53.626;11.410;2022-10-15T02:34:40;13.10;99.90
5138;DHT22;53959;53.626;11.410;2022-10-15T02:37:08;13.20;99.90
5138;DHT22;53959;53.626;11.410;2022-10-15T02:39:33;13.20;99.90
5138;DHT22;53959;53.626;11.410;2022-10-15T02:41:59;13.20;99.90
5138;DHT22;53959;53.626;11.410;2022-10-15T02:44:25;13.20;99.90
5138;DHT22;53959;53.626;11.410;2022-10-15T02:46:51;13.20;99.90
5138;DHT22;53959;53.626;11.410;2022-10-15T02:49:17;13.20;99.90
5138;DHT22;53959;53.626;11.410;2022-10-15T02:51:42;13.20;99.90
5138;DHT22;53959;53.626;11.410;2022-10-15T02:54:08;13.20;99.90
5138;DHT22;53959;53.626;11.410;2022-10-15T02:56:34;13.20;99.90
5138;DHT22;53959;53.626;11.410;2022-10-15T02:59:00;13.20;99.90
5138;DHT22;53959;53.626;11.410;2022-10-15T03:01:26;13.20;99.90
5138;DHT22;53959;53.626;11.410;2022-10-15T03:03:51;13.20;99.90
5138;DHT22;53959;53.626;11.410;2022-10-15T03:06:17;13.20;99.90
5138;DHT22;53959;53.626;11.410;2022-10-15T03:08:42;13.30;99.90
5138;DHT22;53959;53.626;11.410;2022-10-15T03:11:09;13.30;99.90
5138;DHT22;53959;53.626;11.410;2022-10-15T03:13:36;13.30;99.90
5138;DHT22;53959;53.626;11.410;2022-10-15T03:16:05;13.30;99.90
5138;DHT22;53959;53.626;11.410;2022-10-15T03:18:32;13.30;99.90
5138;DHT22;53959;53.626;11.410;2022-10-15T03:20:58;13.30;99.90
5138;DHT22;53959;53.626;11.410;2022-10-15T03:23:24;13.30;99.90
5138;DHT22;53959;53.626;11.410;2022-10-15T03:25:49;13.30;99.90
5138;DHT22;53959;53.626;11.410;2022-10-15T03:28:15;13.30;99.90
5138;DHT22;53959;53.626;11.410;2022-10-15T03:30:44;13.40;99.90
5138;DHT22;53959;53.626;11.410;2022-10-15T03:33:10;13.40;99.90
5138;DHT22;53959;53.626;11.410;2022-10-15T03:35:35;13.40;99.90
5138;DHT22;53959;53.626;11.410;2022-10-15T03:38:01;13.40;99.90
5138;DHT22;53959;53.626;11.410;2022-10-15T03:40:26;13.40;99.90
5138;DHT22;53959;53.626;11.410;2022-10-15T03:42:52;13.40;99.90
5138;DHT22;53959;53.626;11.410;2022-10-15T03:45:22;13.40;99.90
5138;DHT22;53959;53.626;11.410;2022-10-15T03:47:48;13.40;99.90
5138;DHT22;53959;53.626;11.410;2022-10-15T03:50:13;13.40;99.90
5138;DHT22;53959;53.626;11.410;2022-10-15T03:52:39;13.40;99.90
5138;DHT22;53959;53.626;11.410;2022-10-15T03:55:06;13.40;99.90
5138;DHT22;53959;53.626;11.410;2022-10-15T03:57:32;13.40;99.90
5138;DHT22;53959;53.626;11.410;2022-10-15T03:59:57;13.40;99.90
5138;DHT22;53959;53.626;11.410;2022-10-15T04:02:23;13.40;99.90
5138;DHT22;53959;53.626;11.410;2022-10-15T04:04:52;13.40;99.90
5138;DHT22;53959;53.626;11.410;2022-10-15T04:07:19;13.50;99.90
5138;DHT22;53959;53.626;11.410;2022-10-15T04:09:45;13.40;99.90
5138;DHT22;53959;53.626;11.410;2022-10-15T04:12:11;13.40;99.90
5138;DHT22;53959;53.626;11.410;2022-10-15T04:14:36;13.50;99.90
5138;DHT22;53959;53.626;11.410;2022-10-15T04:17:01;13.50;99.90
5138;DHT22;53959;53.626;11.410;2022-10-15T04:19:27;13.50;99.90
5138;DHT22;53959;53.626;11.410;2022-10-15T04:21:53;13.50;99.90
5138;DHT22;53959;53.626;11.410;2022-10-15T04:24:18;13.50;99.90
5138;DHT22;53959;53.626;11.410;2022-10-15T04:26:44;13.50;99.90
5138;DHT22;53959;53.626;11.410;2022-10-15T04:29:09;13.50;99.90
5138;DHT22;53959;53.626;11.410;2022-10-15T04:31:35;13.50;99.90
5138;DHT22;53959;53.626;11.410;2022-10-15T04:34:02;13.50;99.90
5138;DHT22;53959;53.626;11.410;2022-10-15T04:36:28;13.60;99.90
5138;DHT22;53959;53.626;11.410;2022-10-15T04:38:54;13.60;99.90
5138;DHT22;53959;53.626;11.410;2022-10-15T04:41:19;13.50;99.90
5138;DHT22;53959;53.626;11.410;2022-10-15T04:43:45;13.60;99.90
5138;DHT22;53959;53.626;11.410;2022-10-15T04:46:10;13.60;99.90
5138;DHT22;53959;53.626;11.410;2022-10-15T04:48:36;13.60;99.90
5138;DHT22;53959;53.626;11.410;2022-10-15T04:53:33;13.60;99.90
5138;DHT22;53959;53.626;11.410;2022-10-15T04:56:03;13.60;99.90
5138;DHT22;53959;53.626;11.410;2022-10-15T04:58:33;13.60;99.90
5138;DHT22;53959;53.626;11.410;2022-10-15T05:01:06;13.60;99.90
5138;DHT22;53959;53.626;11.410;2022-10-15T05:03:33;13.60;99.90
5138;DHT22;53959;53.626;11.410;2022-10-15T05:06:04;13.60;99.90
5138;DHT22;53959;53.626;11.410;2022-10-15T05:08:30;13.60;99.90
5138;DHT22;53959;53.626;11.410;2022-10-15T05:11:17;13.60;99.90
5138;DHT22;53959;53.626;11.410;2022-10-15T05:13:42;13.60;99.90
5138;DHT22;53959;53.626;11.410;2022-10-15T05:16:13;13.60;99.90
5138;DHT22;53959;53.626;11.410;2022-10-15T05:18:40;13.50;99.90
5138;DHT22;53959;53.626;11.410;2022-10-15T05:21:07;13.40;99.90
5138;DHT22;53959;53.626;11.410;2022-10-15T05:23:33;13.30;99.90
5138;DHT22;53959;53.626;11.410;2022-10-15T05:26:04;13.30;99.90
5138;DHT22;53959;53.626;11.410;2022-10-15T05:28:30;13.30;99.90
5138;DHT22;53959;53.626;11.410;2022-10-15T05:31:02;13.30;99.90
5138;DHT22;53959;53.626;11.410;2022-10-15T05:33:27;13.20;99.90
5138;DHT22;53959;53.626;11.410;2022-10-15T05:35:53;13.30;99.90
5138;DHT22;53959;53.626;11.410;2022-10-15T05:38:18;13.20;99.90
5138;DHT22;53959;53.626;11.410;2022-10-15T05:40:48;13.20;99.90
5138;DHT22;53959;53.626;11.410;2022-10-15T05:43:13;13.20;99.90
5138;DHT22;53959;53.626;11.410;2022-10-15T05:45:39;13.20;99.90
5138;DHT22;53959;53.626;11.410;2022-10-15T05:48:05;13.10;99.90
5138;DHT22;53959;53.626;11.410;2022-10-15T05:50:31;13.10;99.90
5138;DHT22;53959;53.626;11.410;2022-10-15T05:52:57;13.10;99.90
5138;DHT22;53959;53.626;11.410;2022-10-15T05:55:22;13.00;99.90
5138;DHT22;53959;53.626;11.410;2022-10-15T05:57:48;13.00;99.90
5138;DHT22;53959;53.626;11.410;2022-10-15T06:00:13;13.00;99.90
5138;DHT22;53959;53.626;11.410;2022-10-15T06:02:39;12.90;99.90
5138;DHT22;53959;53.626;11.410;2022-10-15T06:05:05;12.90;99.90
5138;DHT22;53959;53.626;11.410;2022-10-15T06:07:31;12.90;99.90
5138;DHT22;53959;53.626;11.410;2022-10-15T06:09:56;12.90;99.90
5138;DHT22;53959;53.626;11.410;2022-10-15T06:12:22;12.80;99.90
5138;DHT22;53959;53.626;11.410;2022-10-15T06:14:47;12.80;99.90
5138;DHT22;53959;53.626;11.410;2022-10-15T06:17:13;12.90;99.90
5138;DHT22;53959;53.626;11.410;2022-10-15T06:19:39;12.80;99.90
5138;DHT22;53959;53.626;11.410;2022-10-15T06:22:04;12.80;99.90
5138;DHT22;53959;53.626;11.410;2022-10-15T06:24:30;12.80;99.90
5138;DHT22;53959;53.626;11.410;2022-10-15T06:26:57;12.80;99.90
5138;DHT22;53959;53.626;11.410;2022-10-15T06:29:23;12.80;99.90
5138;DHT22;53959;53.626;11.410;2022-10-15T06:31:49;12.80;99.90
5138;DHT22;53959;53.626;11.410;2022-10-15T06:34:14;12.80;99.90
5138;DHT22;53959;53.626;11.410;2022-10-15T06:36:40;12.70;99.90
5138;DHT22;53959;53.626;11.410;2022-10-15T06:39:06;12.80;99.90
5138;DHT22;53959;53.626;11.410;2022-10-15T06:41:31;12.70;99.90
5138;DHT22;53959;53.626;11.410;2022-10-15T06:43:57;12.70;99.90
5138;DHT22;53959;53.626;11.410;2022-10-15T06:46:22;12.70;99.90
5138;DHT22;53959;53.626;11.410;2022-10-15T06:48:48;12.60;99.90
5138;DHT22;53959;53.626;11.410;2022-10-15T06:51:15;12.60;99.90
5138;DHT22;53959;53.626;11.410;2022-10-15T06:53:40;12.50;99.90
5138;DHT22;53959;53.626;11.410;2022-10-15T06:56:08;12.60;99.90
5138;DHT22;53959;53.626;11.410;2022-10-15T06:58:33;12.50;99.90
5138;DHT22;53959;53.626;11.410;2022-10-15T07:01:04;12.50;99.90
5138;DHT22;53959;53.626;11.410;2022-10-15T07:03:30;12.50;99.90
5138;DHT22;53959;53.626;11.410;2022-10-15T07:06:01;12.60;99.90
5138;DHT22;53959;53.626;11.410;2022-10-15T07:08:27;12.50;99.90
5138;DHT22;53959;53.626;11.410;2022-10-15T07:10:53;12.50;99.90
5138;DHT22;53959;53.626;11.410;2022-10-15T07:13:19;12.50;99.90
5138;DHT22;53959;53.626;11.410;2022-10-15T07:15:44;12.50;99.90
5138;DHT22;53959;53.626;11.410;2022-10-15T07:18:10;12.50;99.90
5138;DHT22;53959;53.626;11.410;2022-10-15T07:20:36;12.60;99.90
5138;DHT22;53959;53.626;11.410;2022-10-15T07:23:02;12.60;99.90
5138;DHT22;53959;53.626;11.410;2022-10-15T07:25:28;12.60;99.90
5138;DHT22;53959;53.626;11.410;2022-10-15T07:27:54;12.60;99.90
5138;DHT22;53959;53.626;11.410;2022-10-15T07:30:21;12.60;99.90
5138;DHT22;53959;53.626;11.410;2022-10-15T07:32:47;12.60;99.90
5138;DHT22;53959;53.626;11.410;2022-10-15T07:35:13;12.70;99.90
5138;DHT22;53959;53.626;11.410;2022-10-15T07:37:39;12.70;99.90
5138;DHT22;53959;53.626;11.410;2022-10-15T07:42:32;12.70;99.90
5138;DHT22;53959;53.626;11.410;2022-10-15T07:44:58;12.70;99.90
5138;DHT22;53959;53.626;11.410;2022-10-15T07:47:23;12.70;99.90
5138;DHT22;53959;53.626;11.410;2022-10-15T07:49:49;12.80;99.90
5138;DHT22;53959;53.626;11.410;2022-10-15T07:52:14;12.70;99.90
5138;DHT22;53959;53.626;11.410;2022-10-15T07:54:40;12.70;99.90
5138;DHT22;53959;53.626;11.410;2022-10-15T07:57:06;12.80;99.90
5138;DHT22;53959;53.626;11.410;2022-10-15T07:59:32;12.80;99.90
5138;DHT22;53959;53.626;11.410;2022-10-15T08:01:58;12.90;99.90
5138;DHT22;53959;53.626;11.410;2022-10-15T08:04:23;12.80;99.90
5138;DHT22;53959;53.626;11.410;2022-10-15T08:06:49;12.90;99.90
5138;DHT22;53959;53.626;11.410;2022-10-15T08:09:15;13.00;99.90
5138;DHT22;53959;53.626;11.410;2022-10-15T08:11:40;13.10;99.90
5138;DHT22;53959;53.626;11.410;2022-10-15T08:14:06;13.20;99.90
5138;DHT22;53959;53.626;11.410;2022-10-15T08:16:32;13.20;99.90
5138;DHT22;53959;53.626;11.410;2022-10-15T08:18:58;13.20;99.90
5138;DHT22;53959;53.626;11.410;2022-10-15T08:21:24;13.30;99.90
5138;DHT22;53959;53.626;11.410;2022-10-15T08:23:50;13.20;99.90
5138;DHT22;53959;53.626;11.410;2022-10-15T08:26:16;13.30;99.90
5138;DHT22;53959;53.626;11.410;2022-10-15T08:28:42;13.40;99.90
5138;DHT22;53959;53.626;11.410;2022-10-15T08:31:07;13.40;99.90
5138;DHT22;53959;53.626;11.410;2022-10-15T08:33:34;13.20;99.90
5138;DHT22;53959;53.626;11.410;2022-10-15T08:36:00;13.20;99.90
5138;DHT22;53959;53.626;11.410;2022-10-15T08:38:26;13.10;99.90
5138;DHT22;53959;53.626;11.410;2022-10-15T08:40:54;13.10;99.90
5138;DHT22;53959;53.626;11.410;2022-10-15T08:43:38;13.10;99.90
5138;DHT22;53959;53.626;11.410;2022-10-15T08:46:15;13.10;99.90
5138;DHT22;53959;53.626;11.410;2022-10-15T08:48:53;13.20;99.90
5138;DHT22;53959;53.626;11.410;2022-10-15T08:51:22;13.10;99.90
5138;DHT22;53959;53.626;11.410;2022-10-15T08:53:54;13.20;99.90
5138;DHT22;53959;53.626;11.410;2022-10-15T08:56:29;13.10;99.90
5138;DHT22;53959;53.626;11.410;2022-10-15T09:01:50;13.30;99.90
5138;DHT22;53959;53.626;11.410;2022-10-15T09:04:31;13.30;99.90
5138;DHT22;53959;53.626;11.410;2022-10-15T09:13:02;13.30;99.90
5138;DHT22;53959;53.626;11.410;2022-10-15T09:15:32;13.20;99.90
5138;DHT22;53959;53.626;11.410;2022-10-15T09:17:59;13.20;99.90
5138;DHT22;53959;53.626;11.410;2022-10-15T09:20:31;13.30;99.90
5138;DHT22;53959;53.626;11.410;2022-10-15T09:22:57;13.30;99.90
5138;DHT22;53959;53.626;11.410;2022-10-15T09:25:24;13.20;99.90
5138;DHT22;53959;53.626;11.410;2022-10-15T09:27:54;13.20;99.90
5138;DHT22;53959;53.626;11.410;2022-10-15T09:30:42;13.30;99.90
5138;DHT22;53959;53.626;11.410;2022-10-15T09:43:36;13.30;99.90
5138;DHT22;53959;53.626;11.410;2022-10-15T09:46:03;13.30;99.90
5138;DHT22;53959;53.626;11.410;2022-10-15T09:48:37;13.20;99.90
5138;DHT22;53959;53.626;11.410;2022-10-15T09:51:26;13.30;99.90
5138;DHT22;53959;53.626;11.410;2022-10-15T09:54:15;13.50;99.90
5138;DHT22;53959;53.626;11.410;2022-10-15T09:56:51;13.60;99.90
5138;DHT22;53959;53.626;11.410;2022-10-15T09:59:20;13.60;99.90
5138;DHT22;53959;53.626;11.410;2022-10-15T10:01:58;13.50;99.90
5138;DHT22;53959;53.626;11.410;2022-10-15T10:04:26;13.60;99.90
5138;DHT22;53959;53.626;11.410;2022-10-15T10:06:55;13.70;99.90
5138;DHT22;53959;53.626;11.410;2022-10-15T10:09:32;13.80;99.90
5138;DHT22;53959;53.626;11.410;2022-10-15T10:12:00;13.80;99.90
5138;DHT22;53959;53.626;11.410;2022-10-15T10:14:31;13.60;99.90
5138;DHT22;53959;53.626;11.410;2022-10-15T10:17:18;13.70;99.90
5138;DHT22;53959;53.626;11.410;2022-10-15T10:20:01;13.70;99.90
5138;DHT22;53959;53.626;11.410;2022-10-15T10:22:27;14.00;99.90
5138;DHT22;53959;53.626;11.410;2022-10-15T10:24:52;14.10;99.90
5138;DHT22;53959;53.626;11.410;2022-10-15T10:27:21;14.20;99.90
5138;DHT22;53959;53.626;11.410;2022-10-15T10:30:12;14.30;99.90
5138;DHT22;53959;53.626;11.410;2022-10-15T10:32:34;14.30;99.90
5138;DHT22;53959;53.626;11.410;2022-10-15T10:35:01;14.40;99.90
5138;DHT22;53959;53.626;11.410;2022-10-15T10:37:27;14.30;99.90
5138;DHT22;53959;53.626;11.410;2022-10-15T10:39:56;14.40;99.90
5138;DHT22;53959;53.626;11.410;2022-10-15T10:44:51;14.50;99.90
5138;DHT22;53959;53.626;11.410;2022-10-15T10:47:19;14.40;99.90
5138;DHT22;53959;53.626;11.410;2022-10-15T10:49:47;14.60;99.90
5138;DHT22;53959;53.626;11.410;2022-10-15T10:52:33;14.80;99.90
5138;DHT22;53959;53.626;11.410;2022-10-15T10:55:12;14.90;99.90
5138;DHT22;53959;53.626;11.410;2022-10-15T10:57:46;15.00;99.90
5138;DHT22;53959;53.626;11.410;2022-10-15T11:00:15;15.00;99.90
5138;DHT22;53959;53.626;11.410;2022-10-15T11:02:42;15.00;99.90
5138;DHT22;53959;53.626;11.410;2022-10-15T11:05:10;15.20;99.90
5138;DHT22;53959;53.626;11.410;2022-10-15T11:07:45;15.00;99.90
5138;DHT22;53959;53.626;11.410;2022-10-15T11:10:22;15.10;99.90
5138;DHT22;53959;53.626;11.410;2022-10-15T11:15:44;14.90;99.90
5138;DHT22;53959;53.626;11.410;2022-10-15T11:18:48;15.10;99.90
5138;DHT22;53959;53.626;11.410;2022-10-15T11:24:18;15.20;99.90
5138;DHT22;53959;53.626;11.410;2022-10-15T11:27:17;15.40;99.90
5138;DHT22;53959;53.626;11.410;2022-10-15T11:40:50;15.80;99.90
5138;DHT22;53959;53.626;11.410;2022-10-15T11:43:27;15.60;99.90
5138;DHT22;53959;53.626;11.410;2022-10-15T11:46:07;15.90;99.90
5138;DHT22;53959;53.626;11.410;2022-10-15T11:56:37;16.30;99.90
5138;DHT22;53959;53.626;11.410;2022-10-15T11:59:34;16.40;99.90
5138;DHT22;53959;53.626;11.410;2022-10-15T12:02:38;16.50;99.90
5138;DHT22;53959;53.626;11.410;2022-10-15T12:05:07;16.90;99.90
5138;DHT22;53959;53.626;11.410;2022-10-15T12:07:40;16.30;99.90
5138;DHT22;53959;53.626;11.410;2022-10-15T12:12:55;16.70;99.90
5138;DHT22;53959;53.626;11.410;2022-10-15T12:20:47;17.30;99.90
5138;DHT22;53959;53.626;11.410;2022-10-15T12:26:01;17.00;99.90
5138;DHT22;53959;53.626;11.410;2022-10-15T12:28:30;16.70;99.90
5138;DHT22;53959;53.626;11.410;2022-10-15T12:30:58;16.80;99.90
5138;DHT22;53959;53.626;11.410;2022-10-15T12:35:55;17.10;99.90
5138;DHT22;53959;53.626;11.410;2022-10-15T12:38:28;17.10;99.90
5138;DHT22;53959;53.626;11.410;2022-10-15T12:41:01;17.20;99.90
5138;DHT22;53959;53.626;11.410;2022-10-15T12:43:27;17.30;99.90
5138;DHT22;53959;53.626;11.410;2022-10-15T12:45:59;17.20;99.90
5138;DHT22;53959;53.626;11.410;2022-10-15T12:48:36;17.30;99.90
5138;DHT22;53959;53.626;11.410;2022-10-15T12:53:47;17.50;99.90
5138;DHT22;53959;53.626;11.410;2022-10-15T12:58:43;17.20;99.90
5138;DHT22;53959;53.626;11.410;2022-10-15T13:11:57;20.30;99.90
5138;DHT22;53959;53.626;11.410;2022-10-15T13:14:37;19.80;99.90
5138;DHT22;53959;53.626;11.410;2022-10-15T13:17:17;18.40;99.90
5138;DHT22;53959;53.626;11.410;2022-10-15T13:19:48;18.60;99.90
5138;DHT22;53959;53.626;11.410;2022-10-15T13:22:25;17.60;1.00
5138;DHT22;53959;53.626;11.410;2022-10-15T13:24:52;17.50;99.90
5138;DHT22;53959;53.626;11.410;2022-10-15T13:27:30;17.50;99.90
5138;DHT22;53959;53.626;11.410;2022-10-15T13:32:29;18.80;99.90
5138;DHT22;53959;53.626;11.410;2022-10-15T13:34:56;19.80;1.00
5138;DHT22;53959;53.626;11.410;2022-10-15T13:37:33;19.30;99.90
5138;DHT22;53959;53.626;11.410;2022-10-15T13:40:01;18.60;99.90
5138;DHT22;53959;53.626;11.410;2022-10-15T13:42:27;18.20;99.90
5138;DHT22;53959;53.626;11.410;2022-10-15T13:45:16;17.80;1.00
5138;DHT22;53959;53.626;11.410;2022-10-15T13:47:46;17.80;1.00
5138;DHT22;53959;53.626;11.410;2022-10-15T13:50:32;17.80;99.90
5138;DHT22;53959;53.626;11.410;2022-10-15T13:53:13;18.10;99.90
5138;DHT22;53959;53.626;11.410;2022-10-15T13:55:49;17.90;99.90
5138;DHT22;53959;53.626;11.410;2022-10-15T13:58:22;17.70;1.00
5138;DHT22;53959;53.626;11.410;2022-10-15T14:03:33;17.60;99.90
5138;DHT22;53959;53.626;11.410;2022-10-15T14:06:21;17.40;1.00
5138;DHT22;53959;53.626;11.410;2022-10-15T14:08:49;17.40;22.80
5138;DHT22;53959;53.626;11.410;2022-10-15T14:11:15;17.40;99.90
5138;DHT22;53959;53.626;11.410;2022-10-15T14:13:49;17.20;87.50
5138;DHT22;53959;53.626;11.410;2022-10-15T14:18:58;17.10;1.00
5138;DHT22;53959;53.626;11.410;2022-10-15T14:21:33;17.00;1.00
5138;DHT22;53959;53.626;11.410;2022-10-15T14:24:11;17.10;99.90
5138;DHT22;53959;53.626;11.410;2022-10-15T14:26:39;17.00;99.90
5138;DHT22;53959;53.626;11.410;2022-10-15T14:29:06;16.80;6.00
5138;DHT22;53959;53.626;11.410;2022-10-15T14:31:44;16.70;1.00
5138;DHT22;53959;53.626;11.410;2022-10-15T14:36:53;16.70;1.00
5138;DHT22;53959;53.626;11.410;2022-10-15T14:39:26;16.70;44.10
5138;DHT22;53959;53.626;11.410;2022-10-15T14:41:57;16.60;99.90
5138;DHT22;53959;53.626;11.410;2022-10-15T14:44:23;16.60;1.00
5138;DHT22;53959;53.626;11.410;2022-10-15T14:46:58;16.60;99.90
5138;DHT22;53959;53.626;11.410;2022-10-15T14:49:29;16.50;99.90
5138;DHT22;53959;53.626;11.410;2022-10-15T14:52:10;16.50;1.00
5138;DHT22;53959;53.626;11.410;2022-10-15T14:54:42;16.40;99.90
5138;DHT22;53959;53.626;11.410;2022-10-15T14:57:22;16.40;99.90
5138;DHT22;53959;53.626;11.410;2022-10-15T14:59:51;16.40;1.00
5138;DHT22;53959;53.626;11.410;2022-10-15T15:02:18;16.30;1.00
5138;DHT22;53959;53.626;11.410;2022-10-15T15:04:50;16.30;99.90
5138;DHT22;53959;53.626;11.410;2022-10-15T15:07:20;16.30;99.90
5138;DHT22;53959;53.626;11.410;2022-10-15T15:09:50;16.30;99.90
5138;DHT22;53959;53.626;11.410;2022-10-15T15:12:21;16.30;99.90
5138;DHT22;53959;53.626;11.410;2022-10-15T15:14:47;16.20;99.90
5138;DHT22;53959;53.626;11.410;2022-10-15T15:17:15;16.20;99.90
5138;DHT22;53959;53.626;11.410;2022-10-15T15:19:41;16.10;99.90
5138;DHT22;53959;53.626;11.410;2022-10-15T15:22:10;16.10;99.90
5138;DHT22;53959;53.626;11.410;2022-10-15T15:24:37;16.20;99.90
5138;DHT22;53959;53.626;11.410;2022-10-15T15:27:03;16.20;99.90
5138;DHT22;53959;53.626;11.410;2022-10-15T15:29:28;16.10;99.90
5138;DHT22;53959;53.626;11.410;2022-10-15T15:31:54;16.10;99.90
5138;DHT22;53959;53.626;11.410;2022-10-15T15:34:19;16.10;99.90
5138;DHT22;53959;53.626;11.410;2022-10-15T15:36:47;16.10;99.90
5138;DHT22;53959;53.626;11.410;2022-10-15T15:39:13;16.00;99.90
5138;DHT22;53959;53.626;11.410;2022-10-15T15:41:39;16.00;99.90
5138;DHT22;53959;53.626;11.410;2022-10-15T15:44:04;15.90;99.90
5138;DHT22;53959;53.626;11.410;2022-10-15T15:46:31;15.90;99.90
5138;DHT22;53959;53.626;11.410;2022-10-15T15:48:57;15.80;99.90
5138;DHT22;53959;53.626;11.410;2022-10-15T15:51:28;15.80;99.90
5138;DHT22;53959;53.626;11.410;2022-10-15T15:53:55;15.70;99.90
5138;DHT22;53959;53.626;11.410;2022-10-15T15:56:21;15.70;99.90
5138;DHT22;53959;53.626;11.410;2022-10-15T15:58:47;15.70;99.90
5138;DHT22;53959;53.626;11.410;2022-10-15T16:01:15;15.60;99.90
5138;DHT22;53959;53.626;11.410;2022-10-15T16:03:41;15.50;99.90
5138;DHT22;53959;53.626;11.410;2022-10-15T16:06:07;15.50;99.90
5138;DHT22;53959;53.626;11.410;2022-10-15T16:08:34;15.40;99.90
5138;DHT22;53959;53.626;11.410;2022-10-15T16:11:03;15.40;99.90
5138;DHT22;53959;53.626;11.410;2022-10-15T16:13:30;15.40;99.90
5138;DHT22;53959;53.626;11.410;2022-10-15T16:15:55;15.40;99.90
5138;DHT22;53959;53.626;11.410;2022-10-15T16:18:21;15.40;99.90
5138;DHT22;53959;53.626;11.410;2022-10-15T16:20:47;15.40;99.90
5138;DHT22;53959;53.626;11.410;2022-10-15T16:23:13;15.40;99.90
5138;DHT22;53959;53.626;11.410;2022-10-15T16:25:38;15.40;99.90
5138;DHT22;53959;53.626;11.410;2022-10-15T16:28:04;15.40;99.90
5138;DHT22;53959;53.626;11.410;2022-10-15T16:30:30;15.40;99.90
5138;DHT22;53959;53.626;11.410;2022-10-15T16:32:55;15.40;99.90
5138;DHT22;53959;53.626;11.410;2022-10-15T16:35:21;15.40;99.90
5138;DHT22;53959;53.626;11.410;2022-10-15T16:37:47;15.40;99.90
5138;DHT22;53959;53.626;11.410;2022-10-15T16:40:13;15.40;99.90
5138;DHT22;53959;53.626;11.410;2022-10-15T16:42:39;15.40;99.90
5138;DHT22;53959;53.626;11.410;2022-10-15T16:45:05;15.40;99.90
5138;DHT22;53959;53.626;11.410;2022-10-15T16:47:31;15.40;99.90
5138;DHT22;53959;53.626;11.410;2022-10-15T16:49:57;15.40;99.90
5138;DHT22;53959;53.626;11.410;2022-10-15T16:52:22;15.30;99.90
5138;DHT22;53959;53.626;11.410;2022-10-15T16:54:48;15.40;99.90
5138;DHT22;53959;53.626;11.410;2022-10-15T16:57:13;15.30;99.90
5138;DHT22;53959;53.626;11.410;2022-10-15T16:59:39;15.40;99.90
5138;DHT22;53959;53.626;11.410;2022-10-15T17:02:04;15.30;99.90
5138;DHT22;53959;53.626;11.410;2022-10-15T17:04:30;15.20;99.90
5138;DHT22;53959;53.626;11.410;2022-10-15T17:06:55;15.20;99.90
5138;DHT22;53959;53.626;11.410;2022-10-15T17:09:21;15.10;99.90
5138;DHT22;53959;53.626;11.410;2022-10-15T17:11:48;15.10;99.90
5138;DHT22;53959;53.626;11.410;2022-10-15T17:14:15;15.10;99.90
5138;DHT22;53959;53.626;11.410;2022-10-15T17:16:46;15.10;99.90
5138;DHT22;53959;53.626;11.410;2022-10-15T17:19:14;15.10;99.90
5138;DHT22;53959;53.626;11.410;2022-10-15T17:21:40;15.10;99.90
5138;DHT22;53959;53.626;11.410;2022-10-15T17:24:08;15.00;99.90
5138;DHT22;53959;53.626;11.410;2022-10-15T17:26:36;15.00;99.90
5138;DHT22;53959;53.626;11.410;2022-10-15T17:29:04;15.00;99.90
5138;DHT22;53959;53.626;11.410;2022-10-15T17:31:30;14.90;99.90
5138;DHT22;53959;53.626;11.410;2022-10-15T17:34:01;14.90;99.90
5138;DHT22;53959;53.626;11.410;2022-10-15T17:36:28;14.90;99.90
5138;DHT22;53959;53.626;11.410;2022-10-15T17:38:56;14.90;99.90